sensor_id;sensor_type;location;lat;lon;timestamp;P1;durP1;ratioP1;P2;durP2;ratioP2
24555;SDS011;12725;49.440;10.954;2023-06-10T00:03:39;3.83;;;3.22;;
24555;SDS011;12725;49.440;10.954;2023-06-10T00:07:41;4.80;;;2.30;;
24555;SDS011;12725;49.440;10.954;2023-06-10T00:11:41;4.88;;;2.75;;
24555;SDS011;12725;49.440;10.954;2023-06-10T00:15:42;6.88;;;3.38;;
24555;SDS011;12725;49.440;10.954;2023-06-10T00:19:42;6.07;;;2.50;;
24555;SDS011;12725;49.440;10.954;2023-06-10T00:23:43;3.60;;;2.80;;
24555;SDS011;12725;49.440;10.954;2023-06-10T00:27:44;4.70;;;3.35;;
24555;SDS011;12725;49.440;10.954;2023-06-10T00:31:45;8.43;;;2.80;;
24555;SDS011;12725;49.440;10.954;2023-06-10T00:35:46;9.23;;;3.88;;
24555;SDS011;12725;49.440;10.954;2023-06-10T00:39:46;4.15;;;3.10;;
24555;SDS011;12725;49.440;10.954;2023-06-10T00:43:46;5.20;;;2.80;;
24555;SDS011;12725;49.440;10.954;2023-06-10T00:47:50;4.22;;;3.00;;
24555;SDS011;12725;49.440;10.954;2023-06-10T00:51:51;6.18;;;3.42;;
24555;SDS011;12725;49.440;10.954;2023-06-10T00:55:53;6.72;;;3.15;;
24555;SDS011;12725;49.440;10.954;2023-06-10T00:59:54;6.60;;;3.80;;
24555;SDS011;12725;49.440;10.954;2023-06-10T01:03:54;9.30;;;5.72;;
24555;SDS011;12725;49.440;10.954;2023-06-10T01:08:03;5.75;;;4.13;;
24555;SDS011;12725;49.440;10.954;2023-06-10T01:16:40;5.55;;;3.28;;
24555;SDS011;12725;49.440;10.954;2023-06-10T01:20:41;3.65;;;2.65;;
24555;SDS011;12725;49.440;10.954;2023-06-10T01:24:43;3.85;;;2.85;;
24555;SDS011;12725;49.440;10.954;2023-06-10T01:28:49;6.65;;;3.38;;
24555;SDS011;12725;49.440;10.954;2023-06-10T01:32:56;5.78;;;3.25;;
24555;SDS011;12725;49.440;10.954;2023-06-10T01:36:58;6.43;;;2.88;;
24555;SDS011;12725;49.440;10.954;2023-06-10T01:40:59;3.72;;;2.72;;
24555;SDS011;12725;49.440;10.954;2023-06-10T01:45:00;8.48;;;3.10;;
24555;SDS011;12725;49.440;10.954;2023-06-10T01:49:00;4.53;;;3.42;;
24555;SDS011;12725;49.440;10.954;2023-06-10T01:53:01;6.32;;;2.83;;
24555;SDS011;12725;49.440;10.954;2023-06-10T01:57:01;3.53;;;2.78;;
24555;SDS011;12725;49.440;10.954;2023-06-10T02:01:01;3.70;;;2.70;;
24555;SDS011;12725;49.440;10.954;2023-06-10T02:05:02;4.57;;;3.20;;
24555;SDS011;12725;49.440;10.954;2023-06-10T02:09:03;3.72;;;2.70;;
24555;SDS011;12725;49.440;10.954;2023-06-10T02:13:03;7.22;;;3.20;;
24555;SDS011;12725;49.440;10.954;2023-06-10T02:17:06;9.70;;;3.63;;
24555;SDS011;12725;49.440;10.954;2023-06-10T02:21:07;6.75;;;2.95;;
24555;SDS011;12725;49.440;10.954;2023-06-10T02:25:08;4.57;;;3.28;;
24555;SDS011;12725;49.440;10.954;2023-06-10T02:29:08;8.43;;;4.32;;
24555;SDS011;12725;49.440;10.954;2023-06-10T02:33:09;8.95;;;5.28;;
24555;SDS011;12725;49.440;10.954;2023-06-10T02:37:10;9.73;;;4.93;;
24555;SDS011;12725;49.440;10.954;2023-06-10T02:41:11;8.48;;;5.15;;
24555;SDS011;12725;49.440;10.954;2023-06-10T02:45:11;5.63;;;3.65;;
24555;SDS011;12725;49.440;10.954;2023-06-10T02:49:12;9.77;;;4.10;;
24555;SDS011;12725;49.440;10.954;2023-06-10T02:53:14;8.98;;;4.00;;
24555;SDS011;12725;49.440;10.954;2023-06-10T02:57:15;7.30;;;4.25;;
24555;SDS011;12725;49.440;10.954;2023-06-10T03:01:15;6.30;;;3.35;;
24555;SDS011;12725;49.440;10.954;2023-06-10T03:05:15;7.10;;;3.37;;
24555;SDS011;12725;49.440;10.954;2023-06-10T03:09:17;6.00;;;3.83;;
24555;SDS011;12725;49.440;10.954;2023-06-10T03:13:17;5.70;;;3.97;;
24555;SDS011;12725;49.440;10.954;2023-06-10T03:17:19;5.35;;;3.28;;
24555;SDS011;12725;49.440;10.954;2023-06-10T03:21:20;5.03;;;3.40;;
24555;SDS011;12725;49.440;10.954;2023-06-10T03:25:20;5.17;;;3.07;;
24555;SDS011;12725;49.440;10.954;2023-06-10T03:29:21;3.80;;;3.28;;
24555;SDS011;12725;49.440;10.954;2023-06-10T03:33:21;9.82;;;3.53;;
24555;SDS011;12725;49.440;10.954;2023-06-10T03:37:26;5.35;;;3.63;;
24555;SDS011;12725;49.440;10.954;2023-06-10T03:41:27;6.15;;;3.75;;
24555;SDS011;12725;49.440;10.954;2023-06-10T03:45:28;7.38;;;3.53;;
24555;SDS011;12725;49.440;10.954;2023-06-10T03:49:28;7.32;;;3.45;;
24555;SDS011;12725;49.440;10.954;2023-06-10T03:53:29;4.88;;;3.60;;
24555;SDS011;12725;49.440;10.954;2023-06-10T03:57:29;3.83;;;3.15;;
24555;SDS011;12725;49.440;10.954;2023-06-10T04:01:30;6.07;;;3.03;;
24555;SDS011;12725;49.440;10.954;2023-06-10T04:05:31;6.93;;;3.70;;
24555;SDS011;12725;49.440;10.954;2023-06-10T04:09:32;6.88;;;4.10;;
24555;SDS011;12725;49.440;10.954;2023-06-10T04:13:32;6.07;;;3.40;;
24555;SDS011;12725;49.440;10.954;2023-06-10T04:17:32;5.35;;;3.47;;
24555;SDS011;12725;49.440;10.954;2023-06-10T04:21:33;3.88;;;2.90;;
24555;SDS011;12725;49.440;10.954;2023-06-10T04:25:33;5.70;;;3.23;;
24555;SDS011;12725;49.440;10.954;2023-06-10T04:29:34;4.60;;;3.55;;
24555;SDS011;12725;49.440;10.954;2023-06-10T04:33:34;9.10;;;5.90;;
24555;SDS011;12725;49.440;10.954;2023-06-10T04:37:34;9.48;;;4.38;;
24555;SDS011;12725;49.440;10.954;2023-06-10T04:41:35;5.83;;;4.17;;
24555;SDS011;12725;49.440;10.954;2023-06-10T04:45:35;5.93;;;4.10;;
24555;SDS011;12725;49.440;10.954;2023-06-10T04:49:35;5.43;;;3.50;;
24555;SDS011;12725;49.440;10.954;2023-06-10T04:53:36;6.53;;;3.95;;
24555;SDS011;12725;49.440;10.954;2023-06-10T04:57:36;7.43;;;4.25;;
24555;SDS011;12725;49.440;10.954;2023-06-10T05:01:37;6.95;;;3.97;;
24555;SDS011;12725;49.440;10.954;2023-06-10T05:05:37;7.53;;;4.13;;
24555;SDS011;12725;49.440;10.954;2023-06-10T05:09:37;7.77;;;4.10;;
24555;SDS011;12725;49.440;10.954;2023-06-10T05:13:38;4.78;;;3.50;;
24555;SDS011;12725;49.440;10.954;2023-06-10T05:17:40;9.07;;;4.75;;
24555;SDS011;12725;49.440;10.954;2023-06-10T05:21:40;9.10;;;4.80;;
24555;SDS011;12725;49.440;10.954;2023-06-10T05:25:40;7.47;;;4.55;;
24555;SDS011;12725;49.440;10.954;2023-06-10T05:29:41;6.20;;;4.28;;
24555;SDS011;12725;49.440;10.954;2023-06-10T05:33:42;7.10;;;4.47;;
24555;SDS011;12725;49.440;10.954;2023-06-10T05:37:42;6.28;;;4.25;;
24555;SDS011;12725;49.440;10.954;2023-06-10T05:41:43;8.18;;;4.55;;
24555;SDS011;12725;49.440;10.954;2023-06-10T05:45:44;7.43;;;4.82;;
24555;SDS011;12725;49.440;10.954;2023-06-10T05:49:44;6.47;;;4.17;;
24555;SDS011;12725;49.440;10.954;2023-06-10T05:53:45;5.53;;;3.80;;
24555;SDS011;12725;49.440;10.954;2023-06-10T05:57:46;6.47;;;4.43;;
24555;SDS011;12725;49.440;10.954;2023-06-10T06:01:46;9.10;;;4.50;;
24555;SDS011;12725;49.440;10.954;2023-06-10T06:05:47;5.37;;;3.80;;
24555;SDS011;12725;49.440;10.954;2023-06-10T06:09:47;6.47;;;4.15;;
24555;SDS011;12725;49.440;10.954;2023-06-10T06:13:47;14.83;;;4.13;;
24555;SDS011;12725;49.440;10.954;2023-06-10T06:17:48;5.93;;;4.60;;
24555;SDS011;12725;49.440;10.954;2023-06-10T06:21:48;4.90;;;3.28;;
24555;SDS011;12725;49.440;10.954;2023-06-10T06:25:49;7.75;;;4.40;;
24555;SDS011;12725;49.440;10.954;2023-06-10T06:29:49;3.35;;;2.97;;
24555;SDS011;12725;49.440;10.954;2023-06-10T06:33:50;5.13;;;3.05;;
24555;SDS011;12725;49.440;10.954;2023-06-10T06:37:51;6.50;;;4.00;;
24555;SDS011;12725;49.440;10.954;2023-06-10T06:41:51;6.17;;;3.67;;
24555;SDS011;12725;49.440;10.954;2023-06-10T06:45:51;4.10;;;3.20;;
24555;SDS011;12725;49.440;10.954;2023-06-10T06:49:52;5.43;;;3.77;;
24555;SDS011;12725;49.440;10.954;2023-06-10T06:53:52;5.70;;;3.60;;
24555;SDS011;12725;49.440;10.954;2023-06-10T06:57:57;3.60;;;2.70;;
24555;SDS011;12725;49.440;10.954;2023-06-10T07:01:58;2.83;;;2.53;;
24555;SDS011;12725;49.440;10.954;2023-06-10T07:05:59;3.90;;;3.22;;
24555;SDS011;12725;49.440;10.954;2023-06-10T07:09:59;3.60;;;2.75;;
24555;SDS011;12725;49.440;10.954;2023-06-10T07:14:00;3.67;;;3.37;;
24555;SDS011;12725;49.440;10.954;2023-06-10T07:18:00;3.95;;;3.15;;
24555;SDS011;12725;49.440;10.954;2023-06-10T07:22:00;5.47;;;3.07;;
24555;SDS011;12725;49.440;10.954;2023-06-10T07:26:01;4.00;;;3.03;;
24555;SDS011;12725;49.440;10.954;2023-06-10T07:30:01;3.80;;;2.97;;
24555;SDS011;12725;49.440;10.954;2023-06-10T07:34:02;4.82;;;3.63;;
24555;SDS011;12725;49.440;10.954;2023-06-10T07:38:02;5.37;;;2.90;;
24555;SDS011;12725;49.440;10.954;2023-06-10T07:42:03;3.90;;;2.93;;
24555;SDS011;12725;49.440;10.954;2023-06-10T07:46:03;4.20;;;3.70;;
24555;SDS011;12725;49.440;10.954;2023-06-10T07:50:05;5.28;;;3.28;;
24555;SDS011;12725;49.440;10.954;2023-06-10T07:54:06;2.67;;;1.92;;
24555;SDS011;12725;49.440;10.954;2023-06-10T07:58:06;3.47;;;2.55;;
24555;SDS011;12725;49.440;10.954;2023-06-10T08:02:06;4.00;;;2.60;;
24555;SDS011;12725;49.440;10.954;2023-06-10T08:06:07;3.03;;;2.03;;
24555;SDS011;12725;49.440;10.954;2023-06-10T08:10:07;2.93;;;2.20;;
24555;SDS011;12725;49.440;10.954;2023-06-10T08:14:08;2.35;;;2.00;;
24555;SDS011;12725;49.440;10.954;2023-06-10T08:18:08;3.00;;;2.40;;
24555;SDS011;12725;49.440;10.954;2023-06-10T08:22:08;5.70;;;2.53;;
24555;SDS011;12725;49.440;10.954;2023-06-10T08:26:10;2.13;;;1.92;;
24555;SDS011;12725;49.440;10.954;2023-06-10T08:30:11;3.28;;;2.20;;
24555;SDS011;12725;49.440;10.954;2023-06-10T08:34:13;3.30;;;2.10;;
24555;SDS011;12725;49.440;10.954;2023-06-10T08:38:13;4.43;;;2.17;;
24555;SDS011;12725;49.440;10.954;2023-06-10T08:42:24;2.53;;;1.70;;
24555;SDS011;12725;49.440;10.954;2023-06-10T08:46:29;3.22;;;2.42;;
24555;SDS011;12725;49.440;10.954;2023-06-10T08:50:33;2.50;;;2.30;;
24555;SDS011;12725;49.440;10.954;2023-06-10T08:54:35;2.63;;;1.83;;
24555;SDS011;12725;49.440;10.954;2023-06-10T08:58:37;3.30;;;2.80;;
24555;SDS011;12725;49.440;10.954;2023-06-10T09:02:41;2.35;;;1.95;;
24555;SDS011;12725;49.440;10.954;2023-06-10T09:06:43;2.78;;;2.20;;
24555;SDS011;12725;49.440;10.954;2023-06-10T09:10:44;1.80;;;1.70;;
24555;SDS011;12725;49.440;10.954;2023-06-10T09:14:44;2.15;;;1.95;;
24555;SDS011;12725;49.440;10.954;2023-06-10T09:18:45;2.92;;;2.10;;
24555;SDS011;12725;49.440;10.954;2023-06-10T09:22:45;1.40;;;1.30;;
24555;SDS011;12725;49.440;10.954;2023-06-10T09:26:45;1.87;;;1.50;;
24555;SDS011;12725;49.440;10.954;2023-06-10T09:30:46;1.27;;;1.17;;
24555;SDS011;12725;49.440;10.954;2023-06-10T09:34:46;2.20;;;1.57;;
24555;SDS011;12725;49.440;10.954;2023-06-10T09:38:49;2.25;;;1.95;;
24555;SDS011;12725;49.440;10.954;2023-06-10T09:42:53;1.52;;;1.42;;
24555;SDS011;12725;49.440;10.954;2023-06-10T09:46:56;1.80;;;1.67;;
24555;SDS011;12725;49.440;10.954;2023-06-10T09:50:59;2.10;;;1.90;;
24555;SDS011;12725;49.440;10.954;2023-06-10T09:55:00;2.43;;;1.63;;
24555;SDS011;12725;49.440;10.954;2023-06-10T09:59:02;1.67;;;1.40;;
24555;SDS011;12725;49.440;10.954;2023-06-10T10:03:03;2.15;;;1.83;;
24555;SDS011;12725;49.440;10.954;2023-06-10T10:07:04;4.45;;;2.25;;
24555;SDS011;12725;49.440;10.954;2023-06-10T10:11:04;1.30;;;1.20;;
24555;SDS011;12725;49.440;10.954;2023-06-10T10:15:06;2.50;;;2.10;;
24555;SDS011;12725;49.440;10.954;2023-06-10T10:19:12;2.85;;;1.83;;
24555;SDS011;12725;49.440;10.954;2023-06-10T10:23:23;2.05;;;1.85;;
24555;SDS011;12725;49.440;10.954;2023-06-10T10:27:39;1.90;;;1.63;;
24555;SDS011;12725;49.440;10.954;2023-06-10T10:31:43;1.80;;;1.52;;
24555;SDS011;12725;49.440;10.954;2023-06-10T10:35:45;2.38;;;1.80;;
24555;SDS011;12725;49.440;10.954;2023-06-10T10:39:46;2.63;;;2.10;;
24555;SDS011;12725;49.440;10.954;2023-06-10T10:43:47;1.40;;;1.30;;
24555;SDS011;12725;49.440;10.954;2023-06-10T10:47:51;2.92;;;1.70;;
24555;SDS011;12725;49.440;10.954;2023-06-10T10:51:59;2.08;;;1.50;;
24555;SDS011;12725;49.440;10.954;2023-06-10T10:56:04;1.40;;;1.30;;
24555;SDS011;12725;49.440;10.954;2023-06-10T11:00:15;1.88;;;1.55;;
24555;SDS011;12725;49.440;10.954;2023-06-10T11:04:26;2.25;;;2.05;;
24555;SDS011;12725;49.440;10.954;2023-06-10T11:16:42;2.75;;;2.08;;
24555;SDS011;12725;49.440;10.954;2023-06-10T11:24:50;3.17;;;2.08;;
24555;SDS011;12725;49.440;10.954;2023-06-10T11:32:54;3.15;;;1.80;;
24555;SDS011;12725;49.440;10.954;2023-06-10T11:36:54;3.08;;;2.35;;
24555;SDS011;12725;49.440;10.954;2023-06-10T11:40:55;2.00;;;1.70;;
24555;SDS011;12725;49.440;10.954;2023-06-10T11:44:55;2.25;;;1.90;;
24555;SDS011;12725;49.440;10.954;2023-06-10T11:48:56;2.20;;;1.77;;
24555;SDS011;12725;49.440;10.954;2023-06-10T11:52:58;2.33;;;1.98;;
24555;SDS011;12725;49.440;10.954;2023-06-10T11:56:59;2.83;;;2.25;;
24555;SDS011;12725;49.440;10.954;2023-06-10T12:01:03;1.60;;;1.48;;
24555;SDS011;12725;49.440;10.954;2023-06-10T12:05:12;3.00;;;1.57;;
24555;SDS011;12725;49.440;10.954;2023-06-10T12:09:21;5.38;;;3.05;;
24555;SDS011;12725;49.440;10.954;2023-06-10T12:13:23;3.37;;;3.07;;
24555;SDS011;12725;49.440;10.954;2023-06-10T12:21:33;3.85;;;2.05;;
24555;SDS011;12725;49.440;10.954;2023-06-10T12:25:35;3.30;;;1.80;;
24555;SDS011;12725;49.440;10.954;2023-06-10T12:29:37;2.20;;;1.90;;
24555;SDS011;12725;49.440;10.954;2023-06-10T12:33:37;3.10;;;1.80;;
24555;SDS011;12725;49.440;10.954;2023-06-10T12:37:38;2.42;;;1.70;;
24555;SDS011;12725;49.440;10.954;2023-06-10T12:41:39;1.92;;;1.40;;
24555;SDS011;12725;49.440;10.954;2023-06-10T12:45:41;2.30;;;1.50;;
24555;SDS011;12725;49.440;10.954;2023-06-10T12:49:44;1.95;;;1.48;;
24555;SDS011;12725;49.440;10.954;2023-06-10T12:53:45;2.20;;;2.00;;
24555;SDS011;12725;49.440;10.954;2023-06-10T12:57:51;3.10;;;1.63;;
24555;SDS011;12725;49.440;10.954;2023-06-10T13:01:51;2.03;;;1.75;;
24555;SDS011;12725;49.440;10.954;2023-06-10T13:05:52;2.15;;;1.45;;
24555;SDS011;12725;49.440;10.954;2023-06-10T13:09:52;2.45;;;1.80;;
24555;SDS011;12725;49.440;10.954;2023-06-10T13:13:53;1.92;;;1.50;;
24555;SDS011;12725;49.440;10.954;2023-06-10T13:17:53;1.50;;;1.20;;
24555;SDS011;12725;49.440;10.954;2023-06-10T13:21:54;1.73;;;1.43;;
24555;SDS011;12725;49.440;10.954;2023-06-10T13:25:54;2.55;;;1.98;;
24555;SDS011;12725;49.440;10.954;2023-06-10T13:29:55;1.73;;;1.63;;
24555;SDS011;12725;49.440;10.954;2023-06-10T13:33:56;1.40;;;1.30;;
24555;SDS011;12725;49.440;10.954;2023-06-10T13:37:56;1.67;;;1.57;;
24555;SDS011;12725;49.440;10.954;2023-06-10T13:41:56;3.10;;;1.77;;
24555;SDS011;12725;49.440;10.954;2023-06-10T13:45:56;1.53;;;1.43;;
24555;SDS011;12725;49.440;10.954;2023-06-10T13:49:57;1.70;;;1.60;;
24555;SDS011;12725;49.440;10.954;2023-06-10T13:53:57;1.48;;;1.30;;
24555;SDS011;12725;49.440;10.954;2023-06-10T13:57:58;1.93;;;1.73;;
24555;SDS011;12725;49.440;10.954;2023-06-10T14:01:58;2.17;;;1.75;;
24555;SDS011;12725;49.440;10.954;2023-06-10T14:05:58;3.03;;;1.60;;
24555;SDS011;12725;49.440;10.954;2023-06-10T14:09:59;1.20;;;1.10;;
24555;SDS011;12725;49.440;10.954;2023-06-10T14:13:59;2.27;;;1.80;;
24555;SDS011;12725;49.440;10.954;2023-06-10T14:18:00;2.17;;;1.40;;
24555;SDS011;12725;49.440;10.954;2023-06-10T14:22:01;1.67;;;1.30;;
24555;SDS011;12725;49.440;10.954;2023-06-10T14:26:01;1.93;;;1.73;;
24555;SDS011;12725;49.440;10.954;2023-06-10T14:30:03;1.52;;;1.42;;
24555;SDS011;12725;49.440;10.954;2023-06-10T14:34:04;2.10;;;1.60;;
24555;SDS011;12725;49.440;10.954;2023-06-10T14:38:07;1.75;;;1.65;;
24555;SDS011;12725;49.440;10.954;2023-06-10T14:42:07;2.17;;;1.83;;
24555;SDS011;12725;49.440;10.954;2023-06-10T14:46:08;1.60;;;1.50;;
24555;SDS011;12725;49.440;10.954;2023-06-10T14:50:09;2.22;;;1.73;;
24555;SDS011;12725;49.440;10.954;2023-06-10T14:54:09;1.23;;;1.05;;
24555;SDS011;12725;49.440;10.954;2023-06-10T14:58:10;1.05;;;1.02;;
24555;SDS011;12725;49.440;10.954;2023-06-10T15:02:10;1.73;;;1.60;;
24555;SDS011;12725;49.440;10.954;2023-06-10T15:06:11;1.25;;;1.15;;
24555;SDS011;12725;49.440;10.954;2023-06-10T15:10:11;1.30;;;1.13;;
24555;SDS011;12725;49.440;10.954;2023-06-10T15:14:12;1.90;;;1.20;;
24555;SDS011;12725;49.440;10.954;2023-06-10T15:18:12;1.60;;;1.27;;
24555;SDS011;12725;49.440;10.954;2023-06-10T15:22:12;1.90;;;1.43;;
24555;SDS011;12725;49.440;10.954;2023-06-10T15:26:13;2.78;;;1.40;;
24555;SDS011;12725;49.440;10.954;2023-06-10T15:30:13;1.83;;;1.60;;
24555;SDS011;12725;49.440;10.954;2023-06-10T15:34:14;1.77;;;1.67;;
24555;SDS011;12725;49.440;10.954;2023-06-10T15:38:14;1.95;;;1.52;;
24555;SDS011;12725;49.440;10.954;2023-06-10T15:42:15;4.38;;;2.03;;
24555;SDS011;12725;49.440;10.954;2023-06-10T15:46:15;2.57;;;1.63;;
24555;SDS011;12725;49.440;10.954;2023-06-10T15:50:15;2.10;;;1.77;;
24555;SDS011;12725;49.440;10.954;2023-06-10T15:54:16;3.20;;;2.00;;
24555;SDS011;12725;49.440;10.954;2023-06-10T15:58:16;1.50;;;1.40;;
24555;SDS011;12725;49.440;10.954;2023-06-10T16:02:16;2.40;;;1.67;;
24555;SDS011;12725;49.440;10.954;2023-06-10T16:06:17;2.40;;;1.87;;
24555;SDS011;12725;49.440;10.954;2023-06-10T16:10:17;2.45;;;2.17;;
24555;SDS011;12725;49.440;10.954;2023-06-10T16:14:18;2.13;;;1.80;;
24555;SDS011;12725;49.440;10.954;2023-06-10T16:18:18;2.25;;;1.95;;
24555;SDS011;12725;49.440;10.954;2023-06-10T16:22:18;4.53;;;1.85;;
24555;SDS011;12725;49.440;10.954;2023-06-10T16:26:19;1.85;;;1.65;;
24555;SDS011;12725;49.440;10.954;2023-06-10T16:30:21;3.47;;;1.98;;
24555;SDS011;12725;49.440;10.954;2023-06-10T16:34:21;4.05;;;2.38;;
24555;SDS011;12725;49.440;10.954;2023-06-10T16:38:21;2.90;;;2.37;;
24555;SDS011;12725;49.440;10.954;2023-06-10T16:42:22;4.50;;;2.47;;
24555;SDS011;12725;49.440;10.954;2023-06-10T16:46:22;3.07;;;2.40;;
24555;SDS011;12725;49.440;10.954;2023-06-10T16:50:23;4.10;;;2.92;;
24555;SDS011;12725;49.440;10.954;2023-06-10T16:54:23;3.72;;;3.20;;
24555;SDS011;12725;49.440;10.954;2023-06-10T16:58:24;3.45;;;2.63;;
24555;SDS011;12725;49.440;10.954;2023-06-10T17:02:25;4.25;;;3.08;;
24555;SDS011;12725;49.440;10.954;2023-06-10T17:06:26;4.28;;;2.33;;
24555;SDS011;12725;49.440;10.954;2023-06-10T17:10:27;3.58;;;2.25;;
24555;SDS011;12725;49.440;10.954;2023-06-10T17:14:27;3.70;;;2.50;;
24555;SDS011;12725;49.440;10.954;2023-06-10T17:18:28;2.72;;;2.28;;
24555;SDS011;12725;49.440;10.954;2023-06-10T17:22:29;3.27;;;2.83;;
24555;SDS011;12725;49.440;10.954;2023-06-10T17:26:29;2.78;;;2.15;;
24555;SDS011;12725;49.440;10.954;2023-06-10T17:30:30;2.70;;;2.40;;
24555;SDS011;12725;49.440;10.954;2023-06-10T17:34:31;3.00;;;2.17;;
24555;SDS011;12725;49.440;10.954;2023-06-10T17:38:31;3.90;;;2.38;;
24555;SDS011;12725;49.440;10.954;2023-06-10T17:42:32;4.83;;;2.60;;
24555;SDS011;12725;49.440;10.954;2023-06-10T17:46:32;2.53;;;2.30;;
24555;SDS011;12725;49.440;10.954;2023-06-10T17:50:33;5.25;;;3.00;;
24555;SDS011;12725;49.440;10.954;2023-06-10T17:54:33;4.57;;;2.20;;
24555;SDS011;12725;49.440;10.954;2023-06-10T17:58:33;3.17;;;2.40;;
24555;SDS011;12725;49.440;10.954;2023-06-10T18:02:35;3.90;;;3.47;;
24555;SDS011;12725;49.440;10.954;2023-06-10T18:06:35;3.57;;;2.43;;
24555;SDS011;12725;49.440;10.954;2023-06-10T18:10:37;3.50;;;2.53;;
24555;SDS011;12725;49.440;10.954;2023-06-10T18:14:38;5.78;;;2.78;;
24555;SDS011;12725;49.440;10.954;2023-06-10T18:18:40;4.15;;;3.08;;
24555;SDS011;12725;49.440;10.954;2023-06-10T18:22:42;5.10;;;2.78;;
24555;SDS011;12725;49.440;10.954;2023-06-10T18:26:43;4.90;;;3.45;;
24555;SDS011;12725;49.440;10.954;2023-06-10T18:30:43;5.28;;;3.25;;
24555;SDS011;12725;49.440;10.954;2023-06-10T18:34:43;4.70;;;2.95;;
24555;SDS011;12725;49.440;10.954;2023-06-10T18:38:47;4.28;;;2.60;;
24555;SDS011;12725;49.440;10.954;2023-06-10T18:42:47;4.82;;;2.83;;
24555;SDS011;12725;49.440;10.954;2023-06-10T18:46:49;3.92;;;2.90;;
24555;SDS011;12725;49.440;10.954;2023-06-10T18:50:49;6.45;;;2.78;;
24555;SDS011;12725;49.440;10.954;2023-06-10T18:54:51;3.78;;;2.38;;
24555;SDS011;12725;49.440;10.954;2023-06-10T18:58:52;4.68;;;3.70;;
24555;SDS011;12725;49.440;10.954;2023-06-10T19:02:54;3.50;;;2.50;;
24555;SDS011;12725;49.440;10.954;2023-06-10T19:06:54;4.50;;;2.88;;
24555;SDS011;12725;49.440;10.954;2023-06-10T19:10:54;4.77;;;3.07;;
24555;SDS011;12725;49.440;10.954;2023-06-10T19:14:55;3.80;;;2.83;;
24555;SDS011;12725;49.440;10.954;2023-06-10T19:18:55;4.30;;;2.83;;
24555;SDS011;12725;49.440;10.954;2023-06-10T19:22:56;2.83;;;2.53;;
24555;SDS011;12725;49.440;10.954;2023-06-10T19:26:56;3.28;;;2.30;;
24555;SDS011;12725;49.440;10.954;2023-06-10T19:30:56;3.30;;;2.37;;
24555;SDS011;12725;49.440;10.954;2023-06-10T19:34:57;7.27;;;2.97;;
24555;SDS011;12725;49.440;10.954;2023-06-10T19:38:57;4.28;;;2.95;;
24555;SDS011;12725;49.440;10.954;2023-06-10T19:42:58;5.67;;;3.33;;
24555;SDS011;12725;49.440;10.954;2023-06-10T19:46:59;3.22;;;2.78;;
24555;SDS011;12725;49.440;10.954;2023-06-10T19:51:01;2.65;;;2.45;;
24555;SDS011;12725;49.440;10.954;2023-06-10T19:55:04;2.20;;;2.00;;
24555;SDS011;12725;49.440;10.954;2023-06-10T19:59:05;3.78;;;2.70;;
24555;SDS011;12725;49.440;10.954;2023-06-10T20:03:05;3.95;;;2.30;;
24555;SDS011;12725;49.440;10.954;2023-06-10T20:07:07;4.45;;;3.05;;
24555;SDS011;12725;49.440;10.954;2023-06-10T20:11:07;2.83;;;2.35;;
24555;SDS011;12725;49.440;10.954;2023-06-10T20:15:08;5.63;;;2.47;;
24555;SDS011;12725;49.440;10.954;2023-06-10T20:19:09;2.80;;;2.45;;
24555;SDS011;12725;49.440;10.954;2023-06-10T20:23:09;2.58;;;2.38;;
24555;SDS011;12725;49.440;10.954;2023-06-10T20:27:11;4.07;;;2.83;;
24555;SDS011;12725;49.440;10.954;2023-06-10T20:31:11;2.53;;;2.33;;
24555;SDS011;12725;49.440;10.954;2023-06-10T20:35:12;3.53;;;2.57;;
24555;SDS011;12725;49.440;10.954;2023-06-10T20:39:14;8.50;;;2.85;;
24555;SDS011;12725;49.440;10.954;2023-06-10T20:43:16;3.95;;;2.80;;
24555;SDS011;12725;49.440;10.954;2023-06-10T20:47:17;5.07;;;2.90;;
24555;SDS011;12725;49.440;10.954;2023-06-10T20:51:20;3.33;;;2.08;;
24555;SDS011;12725;49.440;10.954;2023-06-10T20:55:21;2.72;;;1.92;;
24555;SDS011;12725;49.440;10.954;2023-06-10T20:59:24;8.43;;;2.13;;
24555;SDS011;12725;49.440;10.954;2023-06-10T21:03:25;1.83;;;1.65;;
24555;SDS011;12725;49.440;10.954;2023-06-10T21:07:26;2.67;;;2.30;;
24555;SDS011;12725;49.440;10.954;2023-06-10T21:11:26;4.20;;;2.15;;
24555;SDS011;12725;49.440;10.954;2023-06-10T21:15:27;2.58;;;2.38;;
24555;SDS011;12725;49.440;10.954;2023-06-10T21:19:27;3.03;;;2.42;;
24555;SDS011;12725;49.440;10.954;2023-06-10T21:23:28;2.60;;;2.13;;
24555;SDS011;12725;49.440;10.954;2023-06-10T21:27:30;3.67;;;2.65;;
24555;SDS011;12725;49.440;10.954;2023-06-10T21:31:30;1.75;;;1.65;;
24555;SDS011;12725;49.440;10.954;2023-06-10T21:35:31;2.72;;;2.05;;
24555;SDS011;12725;49.440;10.954;2023-06-10T21:39:31;2.33;;;1.80;;
24555;SDS011;12725;49.440;10.954;2023-06-10T21:43:31;2.13;;;1.60;;
24555;SDS011;12725;49.440;10.954;2023-06-10T21:47:32;1.93;;;1.53;;
24555;SDS011;12725;49.440;10.954;2023-06-10T21:51:32;2.07;;;1.80;;
24555;SDS011;12725;49.440;10.954;2023-06-10T21:55:32;2.95;;;2.20;;
24555;SDS011;12725;49.440;10.954;2023-06-10T21:59:33;1.70;;;1.30;;
24555;SDS011;12725;49.440;10.954;2023-06-10T22:03:35;2.65;;;2.13;;
24555;SDS011;12725;49.440;10.954;2023-06-10T22:07:36;1.70;;;1.60;;
24555;SDS011;12725;49.440;10.954;2023-06-10T22:11:37;1.90;;;1.52;;
24555;SDS011;12725;49.440;10.954;2023-06-10T22:15:38;2.00;;;1.67;;
24555;SDS011;12725;49.440;10.954;2023-06-10T22:19:38;4.00;;;1.70;;
24555;SDS011;12725;49.440;10.954;2023-06-10T22:23:41;3.35;;;2.10;;
24555;SDS011;12725;49.440;10.954;2023-06-10T22:27:41;2.60;;;1.80;;
24555;SDS011;12725;49.440;10.954;2023-06-10T22:31:41;3.50;;;1.70;;
24555;SDS011;12725;49.440;10.954;2023-06-10T22:35:42;1.70;;;1.50;;
24555;SDS011;12725;49.440;10.954;2023-06-10T22:39:45;2.80;;;1.88;;
24555;SDS011;12725;49.440;10.954;2023-06-10T22:43:45;2.37;;;1.67;;
24555;SDS011;12725;49.440;10.954;2023-06-10T22:47:46;2.30;;;1.80;;
24555;SDS011;12725;49.440;10.954;2023-06-10T22:51:46;3.70;;;2.55;;
24555;SDS011;12725;49.440;10.954;2023-06-10T22:55:47;3.70;;;2.58;;
24555;SDS011;12725;49.440;10.954;2023-06-10T22:59:47;1.63;;;1.53;;
24555;SDS011;12725;49.440;10.954;2023-06-10T23:03:47;2.83;;;1.97;;
24555;SDS011;12725;49.440;10.954;2023-06-10T23:07:48;2.72;;;1.67;;
24555;SDS011;12725;49.440;10.954;2023-06-10T23:11:49;1.88;;;1.50;;
24555;SDS011;12725;49.440;10.954;2023-06-10T23:15:50;4.70;;;2.43;;
24555;SDS011;12725;49.440;10.954;2023-06-10T23:19:52;3.17;;;2.15;;
24555;SDS011;12725;49.440;10.954;2023-06-10T23:23:52;3.67;;;2.07;;
24555;SDS011;12725;49.440;10.954;2023-06-10T23:27:53;2.58;;;1.95;;
24555;SDS011;12725;49.440;10.954;2023-06-10T23:31:54;2.22;;;1.85;;
24555;SDS011;12725;49.440;10.954;2023-06-10T23:35:54;2.28;;;1.52;;
24555;SDS011;12725;49.440;10.954;2023-06-10T23:39:55;2.47;;;2.10;;
24555;SDS011;12725;49.440;10.954;2023-06-10T23:43:55;1.80;;;1.50;;
24555;SDS011;12725;49.440;10.954;2023-06-10T23:47:55;3.33;;;2.00;;
24555;SDS011;12725;49.440;10.954;2023-06-10T23:51:56;3.50;;;2.03;;
24555;SDS011;12725;49.440;10.954;2023-06-10T23:55:56;4.72;;;1.70;;
24555;SDS011;12725;49.440;10.954;2023-06-10T23:59:56;3.43;;;2.40;;
